createdAt,value
2019-04-14T00:00:01.161Z,100880.04
2019-04-14T00:02:40.325Z,100869.11
2019-04-14T00:05:15.303Z,100868.16
2019-04-14T00:07:47.144Z,100866.94
2019-04-14T00:10:20.372Z,100866.02
2019-04-14T00:12:53.425Z,100862.88
2019-04-14T00:15:32.946Z,100861.05
2019-04-14T00:17:59.002Z,100861.54
2019-04-14T00:20:31.760Z,100867.41
2019-04-14T00:23:04.372Z,100868.52
2019-04-14T00:25:37.024Z,100864.27
2019-04-14T00:28:09.491Z,100869.44
2019-04-14T00:30:42.558Z,100878.64
2019-04-14T00:33:19.245Z,100885.84
2019-04-14T00:36:08.750Z,100889.89
2019-04-14T00:38:43.216Z,100888.22
2019-04-14T00:41:34.359Z,100883.77
2019-04-14T00:43:57.740Z,100881.95
2019-04-14T00:46:43.109Z,100877.05
2019-04-14T00:49:15.748Z,100873.47
2019-04-14T00:51:48.437Z,100873.03
2019-04-14T00:54:20.192Z,100874.37
2019-04-14T00:56:52.029Z,100859.36
2019-04-14T00:59:24.535Z,100869.05
2019-04-14T01:01:56.939Z,100862.00
2019-04-14T01:04:29.472Z,100858.53
2019-04-14T01:07:02.278Z,100859.23
2019-04-14T01:09:34.793Z,100862.74
2019-04-14T01:12:08.721Z,100861.55
2019-04-14T01:14:40.931Z,100854.01
2019-04-14T01:17:15.973Z,100852.84
2019-04-14T01:19:48.432Z,100854.09
2019-04-14T01:22:20.632Z,100852.50
2019-04-14T01:24:53.297Z,100852.58
2019-04-14T01:27:25.619Z,100851.72
2019-04-14T01:29:58.140Z,100839.98
2019-04-14T01:32:30.491Z,100845.52
2019-04-14T01:35:03.084Z,100844.78
2019-04-14T01:37:35.443Z,100847.45
2019-04-14T01:40:09.952Z,100856.75
2019-04-14T01:42:42.085Z,100856.39
2019-04-14T01:45:16.466Z,100860.87
2019-04-14T01:47:48.989Z,100845.53
2019-04-14T01:50:23.450Z,100855.31
2019-04-14T01:53:03.226Z,100861.83
2019-04-14T01:55:43.886Z,100862.02
2019-04-14T01:58:20.772Z,100853.40
2019-04-14T02:00:55.333Z,100848.67
2019-04-14T02:03:28.112Z,100851.55
2019-04-14T02:06:00.381Z,100849.52
2019-04-14T02:08:32.904Z,100839.64
2019-04-14T02:11:05.217Z,100843.30
2019-04-14T02:13:37.689Z,100833.17
2019-04-14T02:16:18.776Z,100825.44
2019-04-14T02:18:44.931Z,100823.83
2019-04-14T02:21:17.228Z,100822.38
2019-04-14T02:23:49.827Z,100815.63
2019-04-14T02:26:22.049Z,100817.77
2019-04-14T02:28:54.897Z,100819.75
2019-04-14T02:31:53.502Z,100812.08
2019-04-14T02:34:34.619Z,100814.30
2019-04-14T02:42:17.560Z,100823.27
2019-04-14T02:47:48.774Z,100826.03
2019-04-14T02:52:20.588Z,100834.24
2019-04-14T02:54:59.680Z,100823.61
2019-04-14T02:57:41.663Z,100829.63
2019-04-14T02:59:58.475Z,100832.80
2019-04-14T03:05:01.866Z,100835.45
2019-04-14T03:12:54.852Z,100839.39
2019-04-14T03:15:35.326Z,100849.38
2019-04-14T03:18:24.525Z,100861.09
2019-04-14T03:21:09.253Z,100860.36
2019-04-14T03:23:53.438Z,100862.25
2019-04-14T03:26:26.171Z,100839.39
2019-04-14T03:29:05.424Z,100860.98
2019-04-14T03:32:07.451Z,100863.87
2019-04-14T03:39:23.345Z,100854.22
2019-04-14T03:41:56.588Z,100849.41
2019-04-14T03:44:34.653Z,100842.59
2019-04-14T03:49:42.892Z,100841.14
2019-04-14T03:52:04.002Z,100847.94
2019-04-14T03:54:36.637Z,100841.77
2019-04-14T03:56:53.787Z,100846.16
2019-04-14T03:59:26.144Z,100849.02
2019-04-14T04:01:58.691Z,100849.89
2019-04-14T04:04:31.576Z,100845.16
2019-04-14T04:07:03.866Z,100840.58
2019-04-14T04:09:43.424Z,100840.66
2019-04-14T04:12:16.098Z,100837.75
2019-04-14T04:14:48.511Z,100842.05
2019-04-14T04:17:23.315Z,100846.92
2019-04-14T04:20:04.556Z,100853.84
2019-04-14T04:22:52.294Z,100847.77
2019-04-14T04:25:26.642Z,100845.14
2019-04-14T04:27:59.940Z,100854.53
2019-04-14T04:30:36.383Z,100850.31
2019-04-14T04:33:13.299Z,100849.69
2019-04-14T04:35:58.703Z,100857.16
2019-04-14T04:38:42.041Z,100851.27
2019-04-14T04:41:16.837Z,100855.15
2019-04-14T04:43:51.814Z,100852.23
2019-04-14T04:46:26.584Z,100855.97
2019-04-14T04:49:09.604Z,100850.45
2019-04-14T04:51:35.706Z,100845.95
2019-04-14T04:54:08.408Z,100848.88
2019-04-14T04:56:40.512Z,100843.86
2019-04-14T04:59:14.666Z,100836.10
2019-04-14T05:01:47.319Z,100836.39
2019-04-14T05:04:22.017Z,100837.61
2019-04-14T05:07:01.538Z,100829.85
2019-04-14T05:09:38.857Z,100827.93
2019-04-14T05:12:15.816Z,100829.03
2019-04-14T05:15:01.390Z,100829.52
2019-04-14T05:17:41.013Z,100824.79
2019-04-14T05:20:13.707Z,100831.52
2019-04-14T05:22:46.173Z,100830.23
2019-04-14T05:25:18.879Z,100832.78
2019-04-14T05:27:51.634Z,100838.02
2019-04-14T05:30:24.285Z,100831.92
2019-04-14T05:32:56.549Z,100825.31
2019-04-14T05:35:29.100Z,100825.09
2019-04-14T05:38:02.596Z,100824.75
2019-04-14T05:40:34.363Z,100823.55
2019-04-14T05:43:28.382Z,100825.42
2019-04-14T05:45:50.363Z,100830.80
2019-04-14T05:48:22.887Z,100822.38
2019-04-14T05:50:55.603Z,100832.87
2019-04-14T05:53:28.275Z,100834.52
2019-04-14T05:56:01.462Z,100835.84
2019-04-14T05:58:34.526Z,100839.84
2019-04-14T06:01:06.921Z,100835.99
2019-04-14T06:03:38.814Z,100833.25
2019-04-14T06:06:10.340Z,100837.80
2019-04-14T06:08:43.157Z,100834.41
2019-04-14T06:11:15.863Z,100838.80
2019-04-14T06:13:49.065Z,100836.77
2019-04-14T06:16:21.628Z,100838.32
2019-04-14T06:18:53.254Z,100839.14
2019-04-14T06:21:25.461Z,100831.74
2019-04-14T06:23:58.826Z,100835.31
2019-04-14T06:26:30.384Z,100832.87
2019-04-14T06:29:01.932Z,100833.17
2019-04-14T06:31:53.911Z,100829.34
2019-04-14T06:34:34.551Z,100835.70
2019-04-14T06:37:08.138Z,100837.41
2019-04-14T06:39:44.461Z,100837.68
2019-04-14T06:42:16.641Z,100838.09
2019-04-14T06:44:49.394Z,100843.91
2019-04-14T06:47:21.214Z,100839.28
2019-04-14T06:49:53.142Z,100849.60
2019-04-14T06:52:25.142Z,100848.92
2019-04-14T06:54:56.844Z,100844.08
2019-04-14T06:57:29.652Z,100848.29
2019-04-14T07:00:02.343Z,100848.08
2019-04-14T07:02:35.755Z,100849.50
2019-04-14T07:05:08.923Z,100846.94
2019-04-14T07:07:40.413Z,100850.03
2019-04-14T07:10:12.479Z,100855.22
2019-04-14T07:12:45.192Z,100854.25
2019-04-14T07:15:17.065Z,100852.33
2019-04-14T07:17:48.724Z,100854.61
2019-04-14T07:20:20.682Z,100855.25
2019-04-14T07:22:52.907Z,100852.78
2019-04-14T07:25:26.510Z,100851.20
2019-04-14T07:27:58.892Z,100856.27
2019-04-14T07:30:43.346Z,100849.84
2019-04-14T07:33:33.748Z,100847.72
2019-04-14T07:36:13.013Z,100767.00
2019-04-14T07:38:49.039Z,100840.16
2019-04-14T07:41:34.892Z,100841.93
2019-04-14T07:44:21.362Z,100839.91
2019-04-14T07:47:08.263Z,100835.07
2019-04-14T07:49:44.396Z,100841.75
2019-04-14T07:52:29.992Z,100834.67
2019-04-14T07:55:12.346Z,100833.76
2019-04-14T07:58:04.101Z,100831.58
2019-04-14T08:00:43.101Z,100837.52
2019-04-14T08:03:22.846Z,100838.06
2019-04-14T08:05:54.549Z,100841.22
2019-04-14T08:08:26.526Z,100833.14
2019-04-14T08:10:58.305Z,100835.34
2019-04-14T08:13:30.040Z,100837.17
2019-04-14T08:16:01.747Z,100842.84
2019-04-14T08:18:33.285Z,100840.87
2019-04-14T08:21:05.131Z,100844.48
2019-04-14T08:23:36.734Z,100837.58
2019-04-14T08:26:08.269Z,100841.39
2019-04-14T08:28:41.209Z,100837.39
2019-04-14T08:31:12.605Z,100835.70
2019-04-14T08:33:44.259Z,100831.42
2019-04-14T08:36:15.896Z,100828.57
2019-04-14T08:38:48.984Z,100824.03
2019-04-14T08:41:20.325Z,100822.34
2019-04-14T08:43:56.280Z,100823.95
2019-04-14T08:46:29.402Z,100828.17
2019-04-14T08:49:02.583Z,100821.50
2019-04-14T08:51:35.991Z,100822.84
2019-04-14T08:54:09.248Z,100819.60
2019-04-14T08:56:48.620Z,100819.75
2019-04-14T08:59:30.743Z,100821.84
2019-04-14T09:02:19.988Z,100827.17
2019-04-14T09:04:55.685Z,100824.13
2019-04-14T09:07:28.845Z,100822.07
2019-04-14T09:10:17.095Z,100824.59
2019-04-14T09:12:50.203Z,100819.06
2019-04-14T09:15:22.280Z,100821.64
2019-04-14T09:17:54.262Z,100816.61
2019-04-14T09:20:25.939Z,100816.23
2019-04-14T09:22:58.125Z,100818.05
2019-04-14T09:25:30.228Z,100822.70
2019-04-14T09:28:03.143Z,100821.23
2019-04-14T09:30:36.161Z,100815.12
2019-04-14T09:33:08.160Z,100815.41
2019-04-14T09:35:47.804Z,100813.71
2019-04-14T09:38:19.523Z,100815.81
2019-04-14T09:40:51.601Z,100813.55
2019-04-14T09:43:30.106Z,100809.80
2019-04-14T09:46:02.566Z,100810.56
2019-04-14T09:48:34.793Z,100807.55
2019-04-14T09:51:06.472Z,100802.84
2019-04-14T09:53:39.269Z,100807.46
2019-04-14T09:56:10.926Z,100802.39
2019-04-14T09:58:43.049Z,100796.52
2019-04-14T10:01:14.964Z,100796.85
2019-04-14T10:03:46.773Z,100790.15
2019-04-14T10:06:18.478Z,100795.47
2019-04-14T10:08:50.295Z,100802.91
2019-04-14T10:11:22.001Z,100806.49
2019-04-14T10:13:55.526Z,100810.19
2019-04-14T10:16:33.727Z,100803.27
2019-04-14T10:19:12.642Z,100798.23
2019-04-14T10:21:46.038Z,100815.07
2019-04-14T10:24:17.891Z,100806.70
2019-04-14T10:26:54.992Z,100811.11
2019-04-14T10:29:27.946Z,100809.95
2019-04-14T10:32:01.153Z,100808.48
2019-04-14T10:34:32.846Z,100813.26
2019-04-14T10:37:05.828Z,100811.56
2019-04-14T10:39:38.270Z,100813.27
2019-04-14T10:42:10.551Z,100811.52
2019-04-14T10:44:42.107Z,100803.53
2019-04-14T10:47:13.783Z,100803.08
2019-04-14T10:49:45.519Z,100809.84
2019-04-14T10:52:18.898Z,100800.41
2019-04-14T10:54:50.602Z,100809.22
2019-04-14T10:57:25.200Z,100801.58
2019-04-14T10:59:57.097Z,100803.37
2019-04-14T11:02:28.988Z,100799.30
2019-04-14T11:05:00.914Z,100807.99
2019-04-14T11:07:32.545Z,100808.72
2019-04-14T11:10:08.507Z,100808.66
2019-04-14T11:12:41.175Z,100807.99
2019-04-14T11:15:15.561Z,100805.02
2019-04-14T11:17:47.306Z,100806.70
2019-04-14T11:20:20.259Z,100808.29
2019-04-14T11:23:02.767Z,100801.88
2019-04-14T11:25:25.199Z,100801.32
2019-04-14T11:27:57.853Z,100802.63
2019-04-14T11:30:30.582Z,100807.93
2019-04-14T11:33:09.919Z,100797.64
2019-04-14T11:35:49.034Z,100800.98
2019-04-14T11:38:25.740Z,100796.30
2019-04-14T11:40:58.796Z,100792.43
2019-04-14T11:43:30.464Z,100793.86
2019-04-14T11:46:03.718Z,100794.77
2019-04-14T11:48:36.737Z,100789.49
2019-04-14T11:51:08.487Z,100788.92
2019-04-14T11:53:40.579Z,100779.61
2019-04-14T11:56:14.575Z,100785.16
2019-04-14T11:58:46.121Z,100782.75
2019-04-14T12:01:19.283Z,100784.06
2019-04-14T12:04:04.855Z,100781.30
2019-04-14T12:06:43.992Z,100780.89
2019-04-14T12:09:32.654Z,100776.66
2019-04-14T12:12:05.374Z,100774.27
2019-04-14T12:14:37.228Z,100769.66
2019-04-14T12:17:08.772Z,100773.46
2019-04-14T12:19:41.089Z,100772.95
2019-04-14T12:22:13.885Z,100765.61
2019-04-14T12:24:45.395Z,100767.67
2019-04-14T12:27:17.132Z,100761.55
2019-04-14T12:29:50.094Z,100762.63
2019-04-14T12:32:22.318Z,100754.72
2019-04-14T12:34:53.970Z,100764.70
2019-04-14T12:37:25.668Z,100761.11
2019-04-14T12:39:58.302Z,100760.94
2019-04-14T12:42:38.433Z,100761.53
2019-04-14T12:45:32.458Z,100756.95
2019-04-14T12:48:14.369Z,100732.75
2019-04-14T12:50:53.357Z,100761.11
2019-04-14T12:53:25.186Z,100758.14
2019-04-14T12:55:56.883Z,100760.62
2019-04-14T12:58:46.904Z,100762.15
2019-04-14T13:01:21.048Z,100762.03
2019-04-14T13:03:57.188Z,100768.61
2019-04-14T13:06:28.868Z,100756.20
2019-04-14T13:09:01.102Z,100758.87
2019-04-14T13:11:33.961Z,100754.86
2019-04-14T13:14:11.695Z,100755.42
2019-04-14T13:16:44.457Z,100747.89
2019-04-14T13:19:16.373Z,100752.48
2019-04-14T13:21:48.271Z,100755.34
2019-04-14T13:24:20.233Z,100761.28
2019-04-14T13:26:52.475Z,100749.26
2019-04-14T13:29:25.083Z,100756.39
2019-04-14T13:31:57.328Z,100759.16
2019-04-14T13:34:29.892Z,100760.20
2019-04-14T13:37:01.676Z,100763.37
2019-04-14T13:39:33.392Z,100761.87
2019-04-14T13:44:43.010Z,100763.56
2019-04-14T13:47:14.993Z,100757.05
2019-04-14T13:49:47.960Z,100762.75
2019-04-14T13:52:19.604Z,100755.74
2019-04-14T13:54:52.471Z,100760.46
2019-04-14T13:57:25.912Z,100757.30
2019-04-14T13:59:57.306Z,100756.62
2019-04-14T14:02:30.724Z,100752.94
2019-04-14T14:05:02.437Z,100750.92
2019-04-14T14:07:34.015Z,100751.50
2019-04-14T14:10:08.842Z,100748.34
2019-04-14T14:12:47.739Z,100745.12
2019-04-14T14:15:33.306Z,100746.88
2019-04-14T14:18:22.947Z,100744.83
2019-04-14T14:21:14.842Z,100747.92
2019-04-14T14:23:48.175Z,100737.23
2019-04-14T14:26:32.060Z,100743.69
2019-04-14T14:29:03.977Z,100740.73
2019-04-14T14:31:36.392Z,100742.88
2019-04-14T14:34:11.289Z,100739.36
2019-04-14T14:36:43.102Z,100742.44
2019-04-14T14:39:16.233Z,100734.73
2019-04-14T14:41:47.867Z,100740.64
2019-04-14T14:44:22.676Z,100735.73
2019-04-14T14:46:56.880Z,100727.66
2019-04-14T14:49:45.563Z,100664.09
2019-04-14T14:52:18.802Z,100722.97
2019-04-14T14:54:53.189Z,100718.67
2019-04-14T14:57:25.119Z,100732.50
2019-04-14T14:59:57.243Z,100723.22
2019-04-14T15:02:31.010Z,100725.77
2019-04-14T15:05:04.887Z,100727.72
2019-04-14T15:07:38.924Z,100732.50
2019-04-14T15:10:13.517Z,100723.80
2019-04-14T15:12:48.201Z,100730.05
2019-04-14T15:15:20.337Z,100724.51
2019-04-14T15:17:58.375Z,100724.51
2019-04-14T15:23:03.640Z,100716.68
2019-04-14T15:25:36.730Z,100727.11
2019-04-14T15:28:09.413Z,100724.11
2019-04-14T15:30:41.558Z,100725.53
2019-04-14T15:33:13.425Z,100720.20
2019-04-14T15:35:46.245Z,100721.16
2019-04-14T15:38:17.941Z,100721.73
2019-04-14T15:40:51.664Z,100721.05
2019-04-14T15:43:24.043Z,100721.37
2019-04-14T15:45:57.007Z,100715.75
2019-04-14T15:48:28.778Z,100720.28
2019-04-14T15:51:00.684Z,100721.47
2019-04-14T15:53:38.237Z,100725.27
2019-04-14T15:56:10.152Z,100721.06
2019-04-14T15:58:50.047Z,100719.94
2019-04-14T16:01:33.475Z,100725.14
2019-04-14T16:04:10.670Z,100730.32
2019-04-14T16:06:44.107Z,100728.09
2019-04-14T16:09:25.008Z,100731.53
2019-04-14T16:12:01.209Z,100729.70
2019-04-14T16:14:50.974Z,100732.02
2019-04-14T16:17:30.998Z,100735.25
2019-04-14T16:20:07.787Z,100731.05
2019-04-14T16:22:39.352Z,100729.55
2019-04-14T16:25:11.204Z,100722.88
2019-04-14T16:28:02.132Z,100727.81
2019-04-14T16:30:55.476Z,100733.06
2019-04-14T16:33:29.164Z,100728.09
2019-04-14T16:36:01.076Z,100734.19
2019-04-14T16:38:33.661Z,100729.83
2019-04-14T16:41:12.862Z,100729.63
2019-04-14T16:43:45.030Z,100726.27
2019-04-14T16:46:18.575Z,100736.80
2019-04-14T16:48:51.844Z,100735.58
2019-04-14T16:51:28.519Z,100738.04
2019-04-14T16:54:03.518Z,100743.09
2019-04-14T16:56:53.453Z,100740.55
2019-04-14T16:59:27.031Z,100743.45
2019-04-14T17:02:10.357Z,100745.56
2019-04-14T17:04:33.247Z,100752.22
2019-04-14T17:07:12.815Z,100754.80
2019-04-14T17:09:45.768Z,100759.00
2019-04-14T17:12:19.346Z,100754.95
2019-04-14T17:14:58.938Z,100762.70
2019-04-14T17:17:44.791Z,100766.92
2019-04-14T17:20:22.906Z,100765.38
2019-04-14T17:23:05.425Z,100766.07
2019-04-14T17:25:41.669Z,100726.41
2019-04-14T17:28:15.388Z,100761.98
2019-04-14T17:30:48.820Z,100760.33
2019-04-14T17:33:22.497Z,100758.63
2019-04-14T17:36:12.474Z,100760.87
2019-04-14T17:39:07.190Z,100769.47
2019-04-14T17:42:01.375Z,100773.31
2019-04-14T17:44:34.951Z,100772.34
2019-04-14T17:47:14.926Z,100776.83
2019-04-14T17:50:05.072Z,100782.75
2019-04-14T17:52:39.618Z,100779.34
2019-04-14T17:55:17.768Z,100777.36
2019-04-14T17:57:54.065Z,100777.16
2019-04-14T18:00:32.086Z,100780.88
2019-04-14T18:03:13.144Z,100778.97
2019-04-14T18:05:56.838Z,100772.00
2019-04-14T18:08:36.143Z,100781.69
2019-04-14T18:11:30.081Z,100785.22
2019-04-14T18:14:11.552Z,100785.75
2019-04-14T18:16:55.662Z,100789.05
2019-04-14T18:19:35.313Z,100771.48
2019-04-14T18:22:07.595Z,100777.87
2019-04-14T18:24:42.593Z,100772.92
2019-04-14T18:27:16.686Z,100773.23
2019-04-14T18:29:53.193Z,100776.53
2019-04-14T18:32:36.169Z,100776.63
2019-04-14T18:35:15.479Z,100774.83
2019-04-14T18:37:49.436Z,100773.66
2019-04-14T18:40:28.653Z,100776.70
2019-04-14T18:43:15.969Z,100777.71
2019-04-14T18:45:58.344Z,100775.05
2019-04-14T18:48:35.229Z,100773.38
2019-04-14T18:51:08.912Z,100776.05
2019-04-14T18:53:49.728Z,100772.53
2019-04-14T18:56:25.742Z,100768.58
2019-04-14T18:59:15.567Z,100768.84
2019-04-14T19:01:53.607Z,100774.17
2019-04-14T19:04:27.985Z,100771.03
2019-04-14T19:07:02.345Z,100773.44
2019-04-14T19:09:34.884Z,100772.66
2019-04-14T19:12:20.595Z,100768.59
2019-04-14T19:15:02.197Z,100775.39
2019-04-14T19:17:38.663Z,100770.81
2019-04-14T19:20:11.570Z,100770.92
2019-04-14T19:22:42.999Z,100775.42
2019-04-14T19:25:16.956Z,100779.08
2019-04-14T19:27:48.781Z,100776.56
2019-04-14T19:30:20.766Z,100776.34
2019-04-14T19:32:57.646Z,100774.12
2019-04-14T19:35:33.827Z,100784.77
2019-04-14T19:38:09.863Z,100774.89
2019-04-14T19:40:42.933Z,100775.15
2019-04-14T19:43:23.570Z,100781.94
2019-04-14T19:45:52.217Z,100777.03
2019-04-14T19:48:23.822Z,100777.66
2019-04-14T19:50:57.010Z,100780.08
2019-04-14T19:53:28.809Z,100776.70
2019-04-14T19:56:00.670Z,100780.39
2019-04-14T19:58:32.547Z,100782.22
2019-04-14T20:01:07.992Z,100785.46
2019-04-14T20:03:44.021Z,100785.13
2019-04-14T20:06:17.401Z,100779.98
2019-04-14T20:08:51.212Z,100779.36
2019-04-14T20:11:27.445Z,100777.91
2019-04-14T20:14:01.178Z,100771.19
2019-04-14T20:16:41.255Z,100774.67
2019-04-14T20:19:24.665Z,100777.45
2019-04-14T20:22:04.130Z,100778.82
2019-04-14T20:24:51.360Z,100780.64
2019-04-14T20:27:37.121Z,100774.64
2019-04-14T20:30:14.387Z,100780.18
2019-04-14T20:32:46.379Z,100773.41
2019-04-14T20:35:18.378Z,100779.47
2019-04-14T20:37:50.484Z,100775.84
2019-04-14T20:40:26.275Z,100764.99
2019-04-14T20:43:03.330Z,100770.30
2019-04-14T20:45:44.184Z,100763.91
2019-04-14T20:48:23.199Z,100768.38
2019-04-14T20:50:56.589Z,100774.27
2019-04-14T20:53:32.577Z,100771.98
2019-04-14T20:56:04.533Z,100767.05
2019-04-14T20:58:36.401Z,100768.85
2019-04-14T21:01:09.791Z,100776.58
2019-04-14T21:03:49.107Z,100761.48
2019-04-14T21:06:22.567Z,100774.98
2019-04-14T21:09:11.282Z,100775.84
2019-04-14T21:12:01.602Z,100772.57
2019-04-14T21:14:40.848Z,100779.34
2019-04-14T21:17:31.654Z,100770.42
2019-04-14T21:20:21.059Z,100778.97
2019-04-14T21:23:00.012Z,100782.61
2019-04-14T21:25:37.191Z,100781.86
2019-04-14T21:28:15.708Z,100784.64
2019-04-14T21:30:58.284Z,100780.91
2019-04-14T21:33:43.873Z,100781.86
2019-04-14T21:36:35.496Z,100775.13
2019-04-14T21:39:12.208Z,100783.08
2019-04-14T21:41:46.794Z,100784.27
2019-04-14T21:44:18.683Z,100778.48
2019-04-14T21:46:50.435Z,100777.02
2019-04-14T21:49:22.103Z,100777.16
2019-04-14T21:52:08.236Z,100773.05
2019-04-14T21:54:41.489Z,100775.36
2019-04-14T21:57:33.998Z,100762.09
2019-04-14T22:00:27.090Z,100764.98
2019-04-14T22:03:13.258Z,100758.22
2019-04-14T22:05:49.008Z,100754.34
2019-04-14T22:08:34.381Z,100759.40
2019-04-14T22:11:21.124Z,100755.80
2019-04-14T22:13:53.016Z,100752.16
2019-04-14T22:16:27.311Z,100756.38
2019-04-14T22:18:59.472Z,100760.02
2019-04-14T22:21:31.296Z,100756.75
2019-04-14T22:24:03.090Z,100757.12
2019-04-14T22:26:34.902Z,100752.41
2019-04-14T22:29:06.803Z,100757.47
2019-04-14T22:31:38.621Z,100757.84
2019-04-14T22:34:10.546Z,100753.15
2019-04-14T22:36:43.011Z,100749.03
2019-04-14T22:39:16.412Z,100751.92
2019-04-14T22:41:48.182Z,100750.49
2019-04-14T22:44:20.444Z,100748.79
2019-04-14T22:46:53.140Z,100746.24
2019-04-14T22:49:25.304Z,100746.38
2019-04-14T22:51:57.856Z,100746.25
2019-04-14T22:54:29.643Z,100749.51
2019-04-14T22:57:02.089Z,100738.76
2019-04-14T22:59:33.674Z,100742.02
2019-04-14T23:02:16.260Z,100729.00
2019-04-14T23:05:07.799Z,100730.16
2019-04-14T23:07:44.207Z,100723.19
2019-04-14T23:10:20.837Z,100722.20
2019-04-14T23:13:06.673Z,100721.62
2019-04-14T23:15:58.002Z,100717.98
2019-04-14T23:18:46.189Z,100718.12
2019-04-14T23:21:23.685Z,100724.50
2019-04-14T23:24:05.694Z,100711.73
2019-04-14T23:26:37.312Z,100714.72
2019-04-14T23:29:08.935Z,100715.23
2019-04-14T23:31:40.699Z,100715.47
2019-04-14T23:34:12.343Z,100709.79
2019-04-14T23:36:43.909Z,100716.31
2019-04-14T23:39:15.379Z,100708.47
2019-04-14T23:41:47.217Z,100713.77
2019-04-14T23:44:19.821Z,100712.67
2019-04-14T23:46:54.448Z,100706.42
2019-04-14T23:49:26.274Z,100708.70
2019-04-14T23:51:57.913Z,100704.59
2019-04-14T23:54:29.557Z,100705.67
2019-04-14T23:57:06.023Z,100709.64
2019-04-14T23:59:34.640Z,100709.17
